sensor_id;sensor_type;location;lat;lon;timestamp;temperature;humidity
59307;DHT22;47983;53.016;-2.260;2022-12-15T00:02:42;-5.80;99.90
59307;DHT22;47983;53.016;-2.260;2022-12-15T00:05:29;-5.80;99.90
59307;DHT22;47983;53.016;-2.260;2022-12-15T00:08:16;-5.80;99.90
59307;DHT22;47983;53.016;-2.260;2022-12-15T00:11:03;-5.80;99.90
59307;DHT22;47983;53.016;-2.260;2022-12-15T00:13:50;-5.90;99.90
59307;DHT22;47983;53.016;-2.260;2022-12-15T00:16:36;-5.90;99.90
59307;DHT22;47983;53.016;-2.260;2022-12-15T00:19:22;-5.80;99.90
59307;DHT22;47983;53.016;-2.260;2022-12-15T00:22:08;-5.90;99.90
59307;DHT22;47983;53.016;-2.260;2022-12-15T00:24:55;-5.90;99.90
59307;DHT22;47983;53.016;-2.260;2022-12-15T00:27:41;-5.90;99.90
59307;DHT22;47983;53.016;-2.260;2022-12-15T00:30:27;-6.00;99.90
59307;DHT22;47983;53.016;-2.260;2022-12-15T00:33:17;-6.10;99.90
59307;DHT22;47983;53.016;-2.260;2022-12-15T00:36:03;-6.10;99.90
59307;DHT22;47983;53.016;-2.260;2022-12-15T00:38:50;-6.10;99.90
59307;DHT22;47983;53.016;-2.260;2022-12-15T00:41:18;-6.10;99.90
59307;DHT22;47983;53.016;-2.260;2022-12-15T00:43:46;-6.10;99.90
59307;DHT22;47983;53.016;-2.260;2022-12-15T00:46:14;-6.10;99.90
59307;DHT22;47983;53.016;-2.260;2022-12-15T00:49:01;-6.10;99.90
59307;DHT22;47983;53.016;-2.260;2022-12-15T00:51:28;-6.10;99.90
59307;DHT22;47983;53.016;-2.260;2022-12-15T00:54:15;-6.20;99.90
59307;DHT22;47983;53.016;-2.260;2022-12-15T00:57:08;-6.20;99.90
59307;DHT22;47983;53.016;-2.260;2022-12-15T00:59:55;-6.20;99.90
59307;DHT22;47983;53.016;-2.260;2022-12-15T01:02:41;-6.20;99.90
59307;DHT22;47983;53.016;-2.260;2022-12-15T01:05:28;-6.20;99.90
59307;DHT22;47983;53.016;-2.260;2022-12-15T01:08:14;-6.30;99.90
59307;DHT22;47983;53.016;-2.260;2022-12-15T01:11:01;-6.30;99.90
59307;DHT22;47983;53.016;-2.260;2022-12-15T01:13:47;-6.40;99.90
59307;DHT22;47983;53.016;-2.260;2022-12-15T01:16:33;-6.40;99.90
59307;DHT22;47983;53.016;-2.260;2022-12-15T01:19:19;-6.40;99.90
59307;DHT22;47983;53.016;-2.260;2022-12-15T01:22:06;-6.40;99.90
59307;DHT22;47983;53.016;-2.260;2022-12-15T01:24:34;-6.40;99.90
59307;DHT22;47983;53.016;-2.260;2022-12-15T01:27:02;-6.40;99.90
59307;DHT22;47983;53.016;-2.260;2022-12-15T01:29:30;-6.40;99.90
59307;DHT22;47983;53.016;-2.260;2022-12-15T01:31:58;-6.40;99.90
59307;DHT22;47983;53.016;-2.260;2022-12-15T01:34:26;-6.40;99.90
59307;DHT22;47983;53.016;-2.260;2022-12-15T01:36:57;-6.40;99.90
59307;DHT22;47983;53.016;-2.260;2022-12-15T01:39:26;-6.50;99.90
59307;DHT22;47983;53.016;-2.260;2022-12-15T01:42:14;-6.50;99.90
59307;DHT22;47983;53.016;-2.260;2022-12-15T01:44:45;-6.50;99.90
59307;DHT22;47983;53.016;-2.260;2022-12-15T01:47:14;-6.50;99.90
59307;DHT22;47983;53.016;-2.260;2022-12-15T01:49:42;-6.60;99.90
59307;DHT22;47983;53.016;-2.260;2022-12-15T01:52:16;-6.60;99.90
59307;DHT22;47983;53.016;-2.260;2022-12-15T01:54:53;-6.60;99.90
59307;DHT22;47983;53.016;-2.260;2022-12-15T01:57:31;-6.70;99.90
59307;DHT22;47983;53.016;-2.260;2022-12-15T01:59:59;-6.60;99.90
59307;DHT22;47983;53.016;-2.260;2022-12-15T02:02:29;-6.60;99.90
59307;DHT22;47983;53.016;-2.260;2022-12-15T02:05:07;-6.60;99.90
59307;DHT22;47983;53.016;-2.260;2022-12-15T02:10:10;-6.70;99.90
59307;DHT22;47983;53.016;-2.260;2022-12-15T02:15:56;-6.80;99.90
59307;DHT22;47983;53.016;-2.260;2022-12-15T02:21:41;-6.80;99.90
59307;DHT22;47983;53.016;-2.260;2022-12-15T02:32:33;-6.90;99.90
59307;DHT22;47983;53.016;-2.260;2022-12-15T02:35:23;-6.90;99.90
59307;DHT22;47983;53.016;-2.260;2022-12-15T02:37:52;-6.90;99.90
59307;DHT22;47983;53.016;-2.260;2022-12-15T02:40:20;-7.00;99.90
59307;DHT22;47983;53.016;-2.260;2022-12-15T02:42:51;-7.00;99.90
59307;DHT22;47983;53.016;-2.260;2022-12-15T02:51:52;-7.00;99.90
59307;DHT22;47983;53.016;-2.260;2022-12-15T02:54:38;-7.00;99.90
59307;DHT22;47983;53.016;-2.260;2022-12-15T02:59:57;-7.10;99.90
59307;DHT22;47983;53.016;-2.260;2022-12-15T03:02:29;-7.10;99.90
59307;DHT22;47983;53.016;-2.260;2022-12-15T03:04:58;-7.10;99.90
59307;DHT22;47983;53.016;-2.260;2022-12-15T03:07:26;-7.20;99.90
59307;DHT22;47983;53.016;-2.260;2022-12-15T03:09:55;-7.20;99.90
59307;DHT22;47983;53.016;-2.260;2022-12-15T03:12:24;-7.20;99.90
59307;DHT22;47983;53.016;-2.260;2022-12-15T03:14:52;-7.20;99.90
59307;DHT22;47983;53.016;-2.260;2022-12-15T03:17:27;-7.30;99.90
59307;DHT22;47983;53.016;-2.260;2022-12-15T03:19:55;-7.30;99.90
59307;DHT22;47983;53.016;-2.260;2022-12-15T03:22:22;-7.30;99.90
59307;DHT22;47983;53.016;-2.260;2022-12-15T03:24:50;-7.30;99.90
59307;DHT22;47983;53.016;-2.260;2022-12-15T03:27:18;-7.30;99.90
59307;DHT22;47983;53.016;-2.260;2022-12-15T03:29:46;-7.30;99.90
59307;DHT22;47983;53.016;-2.260;2022-12-15T03:32:13;-7.20;99.90
59307;DHT22;47983;53.016;-2.260;2022-12-15T03:34:41;-7.20;99.90
59307;DHT22;47983;53.016;-2.260;2022-12-15T03:37:09;-7.30;99.90
59307;DHT22;47983;53.016;-2.260;2022-12-15T03:39:37;-7.30;99.90
59307;DHT22;47983;53.016;-2.260;2022-12-15T03:42:05;-7.30;99.90
59307;DHT22;47983;53.016;-2.260;2022-12-15T03:44:32;-7.20;99.90
59307;DHT22;47983;53.016;-2.260;2022-12-15T03:47:00;-7.30;99.90
59307;DHT22;47983;53.016;-2.260;2022-12-15T03:49:30;-7.30;99.90
59307;DHT22;47983;53.016;-2.260;2022-12-15T03:51:58;-7.30;99.90
59307;DHT22;47983;53.016;-2.260;2022-12-15T03:54:25;-7.30;99.90
59307;DHT22;47983;53.016;-2.260;2022-12-15T03:56:53;-7.30;99.90
59307;DHT22;47983;53.016;-2.260;2022-12-15T03:59:20;-10.20;99.90
59307;DHT22;47983;53.016;-2.260;2022-12-15T04:01:48;-7.40;99.90
59307;DHT22;47983;53.016;-2.260;2022-12-15T04:04:16;-7.30;99.90
59307;DHT22;47983;53.016;-2.260;2022-12-15T04:06:44;-7.30;99.90
59307;DHT22;47983;53.016;-2.260;2022-12-15T04:09:11;-7.30;99.90
59307;DHT22;47983;53.016;-2.260;2022-12-15T04:11:39;-7.30;99.90
59307;DHT22;47983;53.016;-2.260;2022-12-15T04:14:08;-7.30;99.90
59307;DHT22;47983;53.016;-2.260;2022-12-15T04:16:35;-7.30;99.90
59307;DHT22;47983;53.016;-2.260;2022-12-15T04:19:03;-7.30;99.90
59307;DHT22;47983;53.016;-2.260;2022-12-15T04:21:49;-7.30;99.90
59307;DHT22;47983;53.016;-2.260;2022-12-15T04:24:17;-7.30;99.90
59307;DHT22;47983;53.016;-2.260;2022-12-15T04:27:03;-7.30;99.90
59307;DHT22;47983;53.016;-2.260;2022-12-15T04:29:49;-7.40;99.90
59307;DHT22;47983;53.016;-2.260;2022-12-15T04:32:36;-7.50;99.90
59307;DHT22;47983;53.016;-2.260;2022-12-15T04:35:22;-7.60;99.90
59307;DHT22;47983;53.016;-2.260;2022-12-15T04:38:08;-7.60;99.90
59307;DHT22;47983;53.016;-2.260;2022-12-15T04:40:54;-7.60;99.90
59307;DHT22;47983;53.016;-2.260;2022-12-15T04:43:40;-7.60;99.90
59307;DHT22;47983;53.016;-2.260;2022-12-15T04:46:26;-7.60;99.90
59307;DHT22;47983;53.016;-2.260;2022-12-15T04:49:12;-7.60;99.90
59307;DHT22;47983;53.016;-2.260;2022-12-15T04:51:58;-7.60;99.90
59307;DHT22;47983;53.016;-2.260;2022-12-15T04:54:44;-7.60;99.90
59307;DHT22;47983;53.016;-2.260;2022-12-15T04:57:30;-7.60;99.90
59307;DHT22;47983;53.016;-2.260;2022-12-15T05:00:16;-7.60;99.90
59307;DHT22;47983;53.016;-2.260;2022-12-15T05:03:07;-7.60;99.90
59307;DHT22;47983;53.016;-2.260;2022-12-15T05:05:54;-7.70;99.90
59307;DHT22;47983;53.016;-2.260;2022-12-15T05:08:42;-7.70;99.90
59307;DHT22;47983;53.016;-2.260;2022-12-15T05:11:28;-7.70;99.90
59307;DHT22;47983;53.016;-2.260;2022-12-15T05:14:14;-7.70;99.90
59307;DHT22;47983;53.016;-2.260;2022-12-15T05:17:00;-7.70;99.90
59307;DHT22;47983;53.016;-2.260;2022-12-15T05:19:46;-7.70;99.90
59307;DHT22;47983;53.016;-2.260;2022-12-15T05:22:33;-7.70;99.90
59307;DHT22;47983;53.016;-2.260;2022-12-15T05:25:19;-7.70;99.90
59307;DHT22;47983;53.016;-2.260;2022-12-15T05:28:05;-7.70;99.90
59307;DHT22;47983;53.016;-2.260;2022-12-15T05:30:52;-7.70;99.90
59307;DHT22;47983;53.016;-2.260;2022-12-15T05:33:39;-7.60;99.90
59307;DHT22;47983;53.016;-2.260;2022-12-15T05:36:07;-7.70;99.90
59307;DHT22;47983;53.016;-2.260;2022-12-15T05:38:34;-7.60;99.90
59307;DHT22;47983;53.016;-2.260;2022-12-15T05:41:02;-7.60;99.90
59307;DHT22;47983;53.016;-2.260;2022-12-15T05:43:29;-7.60;99.90
59307;DHT22;47983;53.016;-2.260;2022-12-15T05:46:02;-7.60;99.90
59307;DHT22;47983;53.016;-2.260;2022-12-15T05:48:30;-7.60;99.90
59307;DHT22;47983;53.016;-2.260;2022-12-15T05:51:05;-7.70;99.90
59307;DHT22;47983;53.016;-2.260;2022-12-15T05:53:35;-7.70;99.90
59307;DHT22;47983;53.016;-2.260;2022-12-15T05:56:05;-7.80;99.90
59307;DHT22;47983;53.016;-2.260;2022-12-15T05:58:33;-7.80;99.90
59307;DHT22;47983;53.016;-2.260;2022-12-15T06:01:09;-7.90;99.90
59307;DHT22;47983;53.016;-2.260;2022-12-15T06:03:39;-7.80;99.90
59307;DHT22;47983;53.016;-2.260;2022-12-15T06:06:09;-7.80;99.90
59307;DHT22;47983;53.016;-2.260;2022-12-15T06:08:38;-7.80;99.90
59307;DHT22;47983;53.016;-2.260;2022-12-15T06:11:06;-7.80;99.90
59307;DHT22;47983;53.016;-2.260;2022-12-15T06:13:34;-8.10;99.90
59307;DHT22;47983;53.016;-2.260;2022-12-15T06:16:03;-7.80;99.90
59307;DHT22;47983;53.016;-2.260;2022-12-15T06:18:34;-7.70;99.90
59307;DHT22;47983;53.016;-2.260;2022-12-15T06:21:08;-7.70;99.90
59307;DHT22;47983;53.016;-2.260;2022-12-15T06:23:37;-10.40;99.90
59307;DHT22;47983;53.016;-2.260;2022-12-15T06:26:13;-7.70;99.90
59307;DHT22;47983;53.016;-2.260;2022-12-15T06:28:42;-7.70;99.90
59307;DHT22;47983;53.016;-2.260;2022-12-15T06:31:11;-7.70;99.90
59307;DHT22;47983;53.016;-2.260;2022-12-15T06:33:39;-7.80;99.90
59307;DHT22;47983;53.016;-2.260;2022-12-15T06:36:09;-7.70;99.90
59307;DHT22;47983;53.016;-2.260;2022-12-15T06:38:38;-7.70;99.90
59307;DHT22;47983;53.016;-2.260;2022-12-15T06:41:06;-7.70;99.90
59307;DHT22;47983;53.016;-2.260;2022-12-15T06:43:34;-7.70;99.90
59307;DHT22;47983;53.016;-2.260;2022-12-15T06:46:02;-7.80;99.90
59307;DHT22;47983;53.016;-2.260;2022-12-15T06:48:30;-7.80;99.90
59307;DHT22;47983;53.016;-2.260;2022-12-15T06:51:07;-7.80;99.90
59307;DHT22;47983;53.016;-2.260;2022-12-15T06:53:43;-7.90;99.90
59307;DHT22;47983;53.016;-2.260;2022-12-15T06:56:25;-7.80;99.90
59307;DHT22;47983;53.016;-2.260;2022-12-15T06:59:00;-7.90;99.90
59307;DHT22;47983;53.016;-2.260;2022-12-15T07:01:29;-7.90;99.90
59307;DHT22;47983;53.016;-2.260;2022-12-15T07:03:57;-7.90;99.90
59307;DHT22;47983;53.016;-2.260;2022-12-15T07:06:34;-7.80;99.90
59307;DHT22;47983;53.016;-2.260;2022-12-15T07:09:05;-7.90;99.90
59307;DHT22;47983;53.016;-2.260;2022-12-15T07:11:34;-7.90;99.90
59307;DHT22;47983;53.016;-2.260;2022-12-15T07:14:02;-7.90;99.90
59307;DHT22;47983;53.016;-2.260;2022-12-15T07:16:30;-7.90;99.90
59307;DHT22;47983;53.016;-2.260;2022-12-15T07:18:57;-7.90;99.90
59307;DHT22;47983;53.016;-2.260;2022-12-15T07:21:25;-7.90;99.90
59307;DHT22;47983;53.016;-2.260;2022-12-15T07:23:53;-7.90;99.90
59307;DHT22;47983;53.016;-2.260;2022-12-15T07:26:23;-7.90;99.90
59307;DHT22;47983;53.016;-2.260;2022-12-15T07:28:52;-7.90;99.90
59307;DHT22;47983;53.016;-2.260;2022-12-15T07:31:21;-8.00;99.90
59307;DHT22;47983;53.016;-2.260;2022-12-15T07:33:49;-7.90;99.90
59307;DHT22;47983;53.016;-2.260;2022-12-15T07:36:19;-8.00;99.90
59307;DHT22;47983;53.016;-2.260;2022-12-15T07:38:47;-8.00;99.90
59307;DHT22;47983;53.016;-2.260;2022-12-15T07:41:18;-8.00;99.90
59307;DHT22;47983;53.016;-2.260;2022-12-15T07:43:46;-8.00;99.90
59307;DHT22;47983;53.016;-2.260;2022-12-15T07:46:15;-8.00;99.90
59307;DHT22;47983;53.016;-2.260;2022-12-15T07:48:43;-8.10;99.90
59307;DHT22;47983;53.016;-2.260;2022-12-15T07:51:18;-8.10;99.90
59307;DHT22;47983;53.016;-2.260;2022-12-15T07:53:48;-8.10;99.90
59307;DHT22;47983;53.016;-2.260;2022-12-15T07:56:17;-8.20;99.90
59307;DHT22;47983;53.016;-2.260;2022-12-15T07:58:45;-8.10;99.90
59307;DHT22;47983;53.016;-2.260;2022-12-15T08:01:14;-8.20;99.90
59307;DHT22;47983;53.016;-2.260;2022-12-15T08:03:42;-8.10;99.90
59307;DHT22;47983;53.016;-2.260;2022-12-15T08:06:11;-8.10;99.90
59307;DHT22;47983;53.016;-2.260;2022-12-15T08:08:40;-8.10;99.90
59307;DHT22;47983;53.016;-2.260;2022-12-15T08:11:10;-8.10;99.90
59307;DHT22;47983;53.016;-2.260;2022-12-15T08:13:38;-8.10;99.90
59307;DHT22;47983;53.016;-2.260;2022-12-15T08:16:26;-8.10;99.90
59307;DHT22;47983;53.016;-2.260;2022-12-15T08:18:55;-8.10;99.90
59307;DHT22;47983;53.016;-2.260;2022-12-15T08:21:26;-8.10;99.90
59307;DHT22;47983;53.016;-2.260;2022-12-15T08:23:54;-8.10;99.90
59307;DHT22;47983;53.016;-2.260;2022-12-15T08:26:22;-8.10;99.90
59307;DHT22;47983;53.016;-2.260;2022-12-15T08:29:00;-8.10;99.90
59307;DHT22;47983;53.016;-2.260;2022-12-15T08:31:50;-8.00;99.90
59307;DHT22;47983;53.016;-2.260;2022-12-15T08:34:19;-7.90;99.90
59307;DHT22;47983;53.016;-2.260;2022-12-15T08:36:46;-8.00;99.90
59307;DHT22;47983;53.016;-2.260;2022-12-15T08:39:14;-7.90;99.90
59307;DHT22;47983;53.016;-2.260;2022-12-15T08:41:43;-7.90;99.90
59307;DHT22;47983;53.016;-2.260;2022-12-15T08:44:11;-7.80;99.90
59307;DHT22;47983;53.016;-2.260;2022-12-15T08:46:38;-7.80;99.90
59307;DHT22;47983;53.016;-2.260;2022-12-15T08:49:06;-7.90;99.90
59307;DHT22;47983;53.016;-2.260;2022-12-15T08:51:35;-7.80;99.90
59307;DHT22;47983;53.016;-2.260;2022-12-15T08:54:03;-7.80;99.90
59307;DHT22;47983;53.016;-2.260;2022-12-15T08:56:30;-7.80;99.90
59307;DHT22;47983;53.016;-2.260;2022-12-15T08:59:02;-7.70;99.90
59307;DHT22;47983;53.016;-2.260;2022-12-15T09:01:30;-7.60;99.90
59307;DHT22;47983;53.016;-2.260;2022-12-15T09:03:59;-7.60;99.90
59307;DHT22;47983;53.016;-2.260;2022-12-15T09:06:33;-7.50;99.90
59307;DHT22;47983;53.016;-2.260;2022-12-15T09:09:05;-7.40;99.90
59307;DHT22;47983;53.016;-2.260;2022-12-15T09:11:34;-7.30;99.90
59307;DHT22;47983;53.016;-2.260;2022-12-15T09:14:02;-7.30;99.90
59307;DHT22;47983;53.016;-2.260;2022-12-15T09:16:32;-7.10;99.90
59307;DHT22;47983;53.016;-2.260;2022-12-15T09:19:00;-7.10;99.90
59307;DHT22;47983;53.016;-2.260;2022-12-15T09:21:29;-7.00;99.90
59307;DHT22;47983;53.016;-2.260;2022-12-15T09:23:59;-7.00;99.90
59307;DHT22;47983;53.016;-2.260;2022-12-15T09:26:30;-6.90;99.90
59307;DHT22;47983;53.016;-2.260;2022-12-15T09:28:59;-6.80;99.90
59307;DHT22;47983;53.016;-2.260;2022-12-15T09:31:32;-6.70;99.90
59307;DHT22;47983;53.016;-2.260;2022-12-15T09:34:03;-6.60;99.90
59307;DHT22;47983;53.016;-2.260;2022-12-15T09:36:31;-6.40;99.90
59307;DHT22;47983;53.016;-2.260;2022-12-15T09:39:00;-6.40;99.90
59307;DHT22;47983;53.016;-2.260;2022-12-15T09:41:34;-6.20;99.90
59307;DHT22;47983;53.016;-2.260;2022-12-15T09:44:16;-6.20;99.90
59307;DHT22;47983;53.016;-2.260;2022-12-15T09:52:11;-5.90;99.90
59307;DHT22;47983;53.016;-2.260;2022-12-15T09:54:39;-5.80;99.90
59307;DHT22;47983;53.016;-2.260;2022-12-15T09:57:33;-5.80;99.90
59307;DHT22;47983;53.016;-2.260;2022-12-15T10:00:18;-5.60;99.90
59307;DHT22;47983;53.016;-2.260;2022-12-15T10:08:47;-5.20;99.90
59307;DHT22;47983;53.016;-2.260;2022-12-15T10:21:52;-4.40;99.90
59307;DHT22;47983;53.016;-2.260;2022-12-15T10:24:21;-4.30;99.90
59307;DHT22;47983;53.016;-2.260;2022-12-15T10:27:17;-4.30;99.90
59307;DHT22;47983;53.016;-2.260;2022-12-15T10:30:08;-4.10;99.90
59307;DHT22;47983;53.016;-2.260;2022-12-15T10:35:20;-3.70;99.90
59307;DHT22;47983;53.016;-2.260;2022-12-15T10:37:48;-3.70;99.90
59307;DHT22;47983;53.016;-2.260;2022-12-15T10:40:18;-3.60;99.90
59307;DHT22;47983;53.016;-2.260;2022-12-15T10:42:49;-3.30;99.90
59307;DHT22;47983;53.016;-2.260;2022-12-15T10:45:37;-3.30;99.90
59307;DHT22;47983;53.016;-2.260;2022-12-15T10:48:05;-3.00;99.90
59307;DHT22;47983;53.016;-2.260;2022-12-15T10:50:36;-3.00;99.90
59307;DHT22;47983;53.016;-2.260;2022-12-15T10:53:08;-2.80;99.90
59307;DHT22;47983;53.016;-2.260;2022-12-15T10:55:41;-2.70;99.90
59307;DHT22;47983;53.016;-2.260;2022-12-15T10:58:21;-2.50;99.90
59307;DHT22;47983;53.016;-2.260;2022-12-15T11:01:13;-2.30;99.90
59307;DHT22;47983;53.016;-2.260;2022-12-15T11:03:41;-2.10;99.90
59307;DHT22;47983;53.016;-2.260;2022-12-15T11:06:25;-1.90;99.90
59307;DHT22;47983;53.016;-2.260;2022-12-15T11:08:57;-1.70;99.90
59307;DHT22;47983;53.016;-2.260;2022-12-15T11:11:36;-1.40;99.90
59307;DHT22;47983;53.016;-2.260;2022-12-15T11:14:48;-1.20;99.90
59307;DHT22;47983;53.016;-2.260;2022-12-15T11:17:40;-0.90;99.90
59307;DHT22;47983;53.016;-2.260;2022-12-15T11:20:20;-0.60;99.90
59307;DHT22;47983;53.016;-2.260;2022-12-15T11:23:04;-0.40;99.90
59307;DHT22;47983;53.016;-2.260;2022-12-15T11:25:49;-0.10;99.90
59307;DHT22;47983;53.016;-2.260;2022-12-15T11:28:24;0.20;99.90
59307;DHT22;47983;53.016;-2.260;2022-12-15T11:30:59;0.50;99.90
59307;DHT22;47983;53.016;-2.260;2022-12-15T11:33:29;0.70;99.90
59307;DHT22;47983;53.016;-2.260;2022-12-15T11:36:08;1.00;99.90
59307;DHT22;47983;53.016;-2.260;2022-12-15T11:39:03;1.30;99.90
59307;DHT22;47983;53.016;-2.260;2022-12-15T11:47:10;1.60;99.90
59307;DHT22;47983;53.016;-2.260;2022-12-15T11:52:36;2.10;99.90
59307;DHT22;47983;53.016;-2.260;2022-12-15T11:55:25;2.30;99.90
59307;DHT22;47983;53.016;-2.260;2022-12-15T11:59:37;2.60;99.90
59307;DHT22;47983;53.016;-2.260;2022-12-15T12:01:48;3.00;99.90
59307;DHT22;47983;53.016;-2.260;2022-12-15T12:10:04;4.30;99.90
59307;DHT22;47983;53.016;-2.260;2022-12-15T12:12:48;4.70;99.90
59307;DHT22;47983;53.016;-2.260;2022-12-15T12:15:45;5.00;99.90
59307;DHT22;47983;53.016;-2.260;2022-12-15T12:18:20;5.60;99.90
59307;DHT22;47983;53.016;-2.260;2022-12-15T12:20:58;5.70;99.90
59307;DHT22;47983;53.016;-2.260;2022-12-15T12:23:35;6.00;99.90
59307;DHT22;47983;53.016;-2.260;2022-12-15T12:28:59;6.30;99.90
59307;DHT22;47983;53.016;-2.260;2022-12-15T12:34:25;6.90;99.90
59307;DHT22;47983;53.016;-2.260;2022-12-15T12:37:00;7.20;99.90
59307;DHT22;47983;53.016;-2.260;2022-12-15T12:39:31;7.40;99.90
59307;DHT22;47983;53.016;-2.260;2022-12-15T12:44:38;7.80;99.90
59307;DHT22;47983;53.016;-2.260;2022-12-15T12:49:56;8.20;99.90
59307;DHT22;47983;53.016;-2.260;2022-12-15T12:52:33;8.50;99.90
59307;DHT22;47983;53.016;-2.260;2022-12-15T12:55:23;8.60;99.90
59307;DHT22;47983;53.016;-2.260;2022-12-15T12:57:53;8.70;99.90
59307;DHT22;47983;53.016;-2.260;2022-12-15T13:00:26;8.70;99.90
59307;DHT22;47983;53.016;-2.260;2022-12-15T13:05:40;8.80;99.90
59307;DHT22;47983;53.016;-2.260;2022-12-15T13:10:38;9.00;99.90
59307;DHT22;47983;53.016;-2.260;2022-12-15T13:16:05;8.80;99.90
59307;DHT22;47983;53.016;-2.260;2022-12-15T13:19:02;8.80;99.90
59307;DHT22;47983;53.016;-2.260;2022-12-15T13:29:59;9.50;99.90
59307;DHT22;47983;53.016;-2.260;2022-12-15T13:32:36;9.80;99.90
59307;DHT22;47983;53.016;-2.260;2022-12-15T13:37:51;10.20;99.90
59307;DHT22;47983;53.016;-2.260;2022-12-15T13:45:54;10.50;97.70
59307;DHT22;47983;53.016;-2.260;2022-12-15T13:48:30;10.60;97.50
59307;DHT22;47983;53.016;-2.260;2022-12-15T13:53:39;10.60;95.70
59307;DHT22;47983;53.016;-2.260;2022-12-15T13:56:16;10.40;96.50
59307;DHT22;47983;53.016;-2.260;2022-12-15T13:58:53;10.40;97.10
59307;DHT22;47983;53.016;-2.260;2022-12-15T14:01:26;10.20;96.50
59307;DHT22;47983;53.016;-2.260;2022-12-15T14:04:05;9.60;94.10
59307;DHT22;47983;53.016;-2.260;2022-12-15T14:06:39;8.50;93.80
59307;DHT22;47983;53.016;-2.260;2022-12-15T14:09:12;7.50;93.50
59307;DHT22;47983;53.016;-2.260;2022-12-15T14:11:42;6.40;93.80
59307;DHT22;47983;53.016;-2.260;2022-12-15T14:14:33;5.50;94.80
59307;DHT22;47983;53.016;-2.260;2022-12-15T14:17:15;4.60;95.80
59307;DHT22;47983;53.016;-2.260;2022-12-15T14:19:47;3.30;97.70
59307;DHT22;47983;53.016;-2.260;2022-12-15T14:25:07;2.40;99.90
59307;DHT22;47983;53.016;-2.260;2022-12-15T14:27:39;2.40;99.90
59307;DHT22;47983;53.016;-2.260;2022-12-15T14:32:43;2.70;99.90
59307;DHT22;47983;53.016;-2.260;2022-12-15T14:35:26;1.50;99.90
59307;DHT22;47983;53.016;-2.260;2022-12-15T14:37:57;1.30;99.90
59307;DHT22;47983;53.016;-2.260;2022-12-15T14:40:27;1.10;99.90
59307;DHT22;47983;53.016;-2.260;2022-12-15T14:42:56;1.00;99.90
59307;DHT22;47983;53.016;-2.260;2022-12-15T14:45:27;0.90;99.90
59307;DHT22;47983;53.016;-2.260;2022-12-15T14:48:01;0.70;99.90
59307;DHT22;47983;53.016;-2.260;2022-12-15T14:50:49;0.50;99.90
59307;DHT22;47983;53.016;-2.260;2022-12-15T14:53:39;0.40;99.90
59307;DHT22;47983;53.016;-2.260;2022-12-15T14:59:28;0.20;99.90
59307;DHT22;47983;53.016;-2.260;2022-12-15T15:02:09;0.10;99.90
59307;DHT22;47983;53.016;-2.260;2022-12-15T15:04:39;0.00;99.90
59307;DHT22;47983;53.016;-2.260;2022-12-15T15:07:16;-0.10;99.90
59307;DHT22;47983;53.016;-2.260;2022-12-15T15:09:46;-0.10;99.90
59307;DHT22;47983;53.016;-2.260;2022-12-15T15:12:15;-0.20;99.90
59307;DHT22;47983;53.016;-2.260;2022-12-15T15:14:46;-0.30;99.90
59307;DHT22;47983;53.016;-2.260;2022-12-15T15:17:32;-0.30;99.90
59307;DHT22;47983;53.016;-2.260;2022-12-15T15:20:06;-0.50;99.90
59307;DHT22;47983;53.016;-2.260;2022-12-15T15:22:39;-0.60;99.90
59307;DHT22;47983;53.016;-2.260;2022-12-15T15:25:27;-0.60;99.90
59307;DHT22;47983;53.016;-2.260;2022-12-15T15:28:25;-0.70;99.90
59307;DHT22;47983;53.016;-2.260;2022-12-15T15:31:00;-0.70;99.90
59307;DHT22;47983;53.016;-2.260;2022-12-15T15:33:38;-0.80;99.90
59307;DHT22;47983;53.016;-2.260;2022-12-15T15:36:09;-0.90;99.90
59307;DHT22;47983;53.016;-2.260;2022-12-15T15:38:41;-0.90;99.90
59307;DHT22;47983;53.016;-2.260;2022-12-15T15:41:27;-1.00;99.90
59307;DHT22;47983;53.016;-2.260;2022-12-15T15:43:57;-1.10;99.90
59307;DHT22;47983;53.016;-2.260;2022-12-15T15:46:31;-1.20;99.90
59307;DHT22;47983;53.016;-2.260;2022-12-15T15:49:06;-1.20;99.90
59307;DHT22;47983;53.016;-2.260;2022-12-15T15:51:35;-1.30;99.90
59307;DHT22;47983;53.016;-2.260;2022-12-15T15:54:07;-1.30;99.90
59307;DHT22;47983;53.016;-2.260;2022-12-15T15:56:37;-1.40;99.90
59307;DHT22;47983;53.016;-2.260;2022-12-15T15:59:13;-1.40;99.90
59307;DHT22;47983;53.016;-2.260;2022-12-15T16:01:44;-1.50;99.90
59307;DHT22;47983;53.016;-2.260;2022-12-15T16:04:14;-1.50;99.90
59307;DHT22;47983;53.016;-2.260;2022-12-15T16:06:41;-1.50;99.90
59307;DHT22;47983;53.016;-2.260;2022-12-15T16:09:15;-1.60;99.90
59307;DHT22;47983;53.016;-2.260;2022-12-15T16:11:44;-1.60;99.90
59307;DHT22;47983;53.016;-2.260;2022-12-15T16:14:14;-1.70;99.90
59307;DHT22;47983;53.016;-2.260;2022-12-15T16:16:43;-1.70;99.90
59307;DHT22;47983;53.016;-2.260;2022-12-15T16:19:11;-1.80;99.90
59307;DHT22;47983;53.016;-2.260;2022-12-15T16:21:40;-1.80;99.90
59307;DHT22;47983;53.016;-2.260;2022-12-15T16:24:14;-1.80;99.90
59307;DHT22;47983;53.016;-2.260;2022-12-15T16:26:47;-1.90;99.90
59307;DHT22;47983;53.016;-2.260;2022-12-15T16:29:18;-2.00;99.90
59307;DHT22;47983;53.016;-2.260;2022-12-15T16:31:46;-2.00;99.90
59307;DHT22;47983;53.016;-2.260;2022-12-15T16:34:16;-2.00;99.90
59307;DHT22;47983;53.016;-2.260;2022-12-15T16:36:44;-2.00;99.90
59307;DHT22;47983;53.016;-2.260;2022-12-15T16:39:33;-2.10;99.90
59307;DHT22;47983;53.016;-2.260;2022-12-15T16:42:02;-2.20;99.90
59307;DHT22;47983;53.016;-2.260;2022-12-15T16:46:58;-2.20;99.90
59307;DHT22;47983;53.016;-2.260;2022-12-15T16:49:30;-1.80;99.90
59307;DHT22;47983;53.016;-2.260;2022-12-15T16:52:17;-2.20;99.90
59307;DHT22;47983;53.016;-2.260;2022-12-15T16:54:46;-2.30;99.90
59307;DHT22;47983;53.016;-2.260;2022-12-15T16:57:15;-2.30;99.90
59307;DHT22;47983;53.016;-2.260;2022-12-15T16:59:43;-2.40;99.90
59307;DHT22;47983;53.016;-2.260;2022-12-15T17:02:26;-2.40;99.90
59307;DHT22;47983;53.016;-2.260;2022-12-15T17:04:56;-2.40;99.90
59307;DHT22;47983;53.016;-2.260;2022-12-15T17:07:25;-2.40;99.90
59307;DHT22;47983;53.016;-2.260;2022-12-15T17:09:54;-2.50;99.90
59307;DHT22;47983;53.016;-2.260;2022-12-15T17:12:22;-2.60;99.90
59307;DHT22;47983;53.016;-2.260;2022-12-15T17:14:50;-2.60;99.90
59307;DHT22;47983;53.016;-2.260;2022-12-15T17:17:18;-2.60;99.90
59307;DHT22;47983;53.016;-2.260;2022-12-15T17:19:46;-2.70;99.90
59307;DHT22;47983;53.016;-2.260;2022-12-15T17:22:36;-2.70;99.90
59307;DHT22;47983;53.016;-2.260;2022-12-15T17:25:04;-2.70;99.90
59307;DHT22;47983;53.016;-2.260;2022-12-15T17:27:32;-2.70;99.90
59307;DHT22;47983;53.016;-2.260;2022-12-15T17:30:02;-2.70;99.90
59307;DHT22;47983;53.016;-2.260;2022-12-15T17:32:30;-2.70;99.90
59307;DHT22;47983;53.016;-2.260;2022-12-15T17:35:00;-2.70;99.90
59307;DHT22;47983;53.016;-2.260;2022-12-15T17:37:28;-2.80;99.90
59307;DHT22;47983;53.016;-2.260;2022-12-15T17:40:22;-2.80;99.90
59307;DHT22;47983;53.016;-2.260;2022-12-15T17:42:50;-2.90;99.90
59307;DHT22;47983;53.016;-2.260;2022-12-15T17:45:20;-2.90;99.90
59307;DHT22;47983;53.016;-2.260;2022-12-15T17:47:50;-2.90;99.90
59307;DHT22;47983;53.016;-2.260;2022-12-15T17:50:18;-2.90;99.90
59307;DHT22;47983;53.016;-2.260;2022-12-15T17:52:49;-3.00;99.90
59307;DHT22;47983;53.016;-2.260;2022-12-15T17:55:23;-3.00;99.90
59307;DHT22;47983;53.016;-2.260;2022-12-15T17:57:56;-3.00;99.90
59307;DHT22;47983;53.016;-2.260;2022-12-15T18:00:28;-3.10;99.90